createdAt,value
2018-02-16T00:01:51.533Z,116.50
2018-02-16T00:04:20.404Z,103.12
2018-02-16T00:06:49.245Z,98.12
2018-02-16T00:09:18.075Z,125.93
2018-02-16T00:11:46.941Z,145.57
2018-02-16T00:14:15.769Z,152.38
2018-02-16T00:16:44.621Z,130.02
2018-02-16T00:19:13.460Z,144.85
2018-02-16T00:21:42.305Z,124.93
2018-02-16T00:24:11.199Z,118.82
2018-02-16T00:26:40.035Z,108.28
2018-02-16T00:29:08.876Z,100.50
2018-02-16T00:31:37.828Z,140.48
2018-02-16T00:34:06.669Z,112.68
2018-02-16T00:36:35.502Z,131.73
2018-02-16T00:39:04.342Z,121.62
2018-02-16T00:41:33.171Z,117.87
2018-02-16T00:44:02.021Z,94.53
2018-02-16T00:46:30.917Z,86.78
2018-02-16T00:48:59.719Z,144.52
2018-02-16T00:51:28.573Z,117.22
2018-02-16T00:53:57.415Z,126.43
2018-02-16T00:56:26.380Z,107.72
2018-02-16T00:58:55.221Z,84.82
2018-02-16T01:01:24.053Z,89.55
2018-02-16T01:03:52.901Z,104.47
2018-02-16T01:06:21.764Z,87.22
2018-02-16T01:08:50.597Z,97.72
2018-02-16T01:11:19.417Z,135.52
2018-02-16T01:13:48.257Z,104.30
2018-02-16T01:16:17.144Z,101.43
2018-02-16T01:18:46.003Z,102.65
2018-02-16T01:21:14.855Z,111.65
2018-02-16T01:23:43.668Z,90.25
2018-02-16T01:26:12.524Z,58.45
2018-02-16T01:28:41.362Z,72.93
2018-02-16T01:31:10.200Z,59.80
2018-02-16T01:33:39.025Z,44.80
2018-02-16T01:36:07.853Z,58.90
2018-02-16T01:38:36.672Z,49.15
2018-02-16T01:41:05.488Z,55.88
2018-02-16T01:43:34.331Z,37.15
2018-02-16T01:46:03.145Z,28.20
2018-02-16T01:48:31.980Z,29.37
2018-02-16T01:51:00.793Z,21.20
2018-02-16T01:53:29.627Z,17.45
2018-02-16T01:55:58.576Z,23.83
2018-02-16T01:58:27.431Z,19.05
2018-02-16T02:00:56.286Z,27.02
2018-02-16T02:03:25.118Z,18.52
2018-02-16T02:05:53.949Z,21.75
2018-02-16T02:08:22.772Z,14.32
2018-02-16T02:10:51.620Z,20.52
2018-02-16T02:13:20.456Z,20.33
2018-02-16T02:15:49.312Z,13.40
2018-02-16T02:18:18.180Z,14.35
2018-02-16T02:20:46.990Z,13.52
2018-02-16T02:23:15.804Z,7.80
2018-02-16T02:25:44.705Z,8.52
2018-02-16T02:28:13.526Z,10.77
2018-02-16T02:30:42.346Z,9.18
2018-02-16T02:33:11.262Z,8.93
2018-02-16T02:35:40.102Z,10.52
2018-02-16T02:38:08.960Z,16.37
2018-02-16T02:40:37.845Z,20.27
2018-02-16T02:43:06.697Z,17.90
2018-02-16T02:45:35.504Z,11.85
2018-02-16T02:48:04.346Z,15.57
2018-02-16T02:50:33.194Z,12.27
2018-02-16T02:53:02.013Z,11.35
2018-02-16T02:55:30.845Z,8.95
2018-02-16T02:57:59.703Z,11.95
2018-02-16T03:00:28.509Z,9.30
2018-02-16T03:02:57.329Z,12.88
2018-02-16T03:05:26.206Z,6.90
2018-02-16T03:07:55.025Z,9.27
2018-02-16T03:10:23.873Z,7.28
2018-02-16T03:12:52.685Z,10.50
2018-02-16T03:15:21.533Z,10.68
2018-02-16T03:17:50.453Z,7.03
2018-02-16T03:20:19.313Z,8.70
2018-02-16T03:22:48.125Z,8.07
2018-02-16T03:25:16.928Z,11.55
2018-02-16T03:27:45.823Z,6.72
2018-02-16T03:30:14.636Z,8.18
2018-02-16T03:32:43.928Z,10.02
2018-02-16T03:35:12.737Z,11.60
2018-02-16T03:37:41.604Z,9.48
2018-02-16T03:40:10.417Z,9.70
2018-02-16T03:42:39.227Z,9.52
2018-02-16T03:45:08.056Z,6.47
2018-02-16T03:47:36.861Z,6.45
2018-02-16T03:50:05.701Z,8.10
2018-02-16T03:52:34.636Z,6.80
2018-02-16T03:55:03.480Z,4.87
2018-02-16T03:57:32.325Z,10.65
2018-02-16T04:00:01.185Z,6.93
2018-02-16T04:02:30.006Z,6.50
2018-02-16T04:04:58.813Z,8.35
2018-02-16T04:07:27.653Z,4.47
2018-02-16T04:09:56.503Z,5.87
2018-02-16T04:12:25.332Z,10.35
2018-02-16T04:14:54.285Z,307.23
2018-02-16T04:17:23.114Z,5.22
2018-02-16T04:19:51.925Z,5.80
2018-02-16T04:22:20.732Z,7.30
2018-02-16T04:24:49.565Z,6.15
2018-02-16T04:27:18.380Z,10.10
2018-02-16T04:29:47.299Z,13.13
2018-02-16T04:32:16.110Z,12.40
2018-02-16T04:34:44.988Z,10.00
2018-02-16T04:37:13.872Z,12.40
2018-02-16T04:39:42.716Z,42.25
2018-02-16T04:42:11.524Z,22.62
2018-02-16T04:44:40.446Z,26.75
2018-02-16T04:47:09.575Z,9.57
2018-02-16T04:49:38.545Z,9.20
2018-02-16T04:52:07.385Z,15.52
2018-02-16T04:54:36.214Z,10.45
2018-02-16T04:57:05.116Z,8.57
2018-02-16T04:59:33.929Z,12.20
2018-02-16T05:02:02.756Z,13.02
2018-02-16T05:04:31.561Z,14.65
2018-02-16T05:07:00.409Z,10.88
2018-02-16T05:09:30.026Z,11.10
2018-02-16T05:11:58.829Z,15.02
2018-02-16T05:14:27.671Z,10.93
2018-02-16T05:16:56.627Z,14.50
2018-02-16T05:19:25.483Z,16.62
2018-02-16T05:21:54.421Z,9.57
2018-02-16T05:24:23.272Z,15.68
2018-02-16T05:26:52.076Z,11.90
2018-02-16T05:29:20.895Z,14.02
2018-02-16T05:31:49.807Z,15.88
2018-02-16T05:34:18.779Z,15.35
2018-02-16T05:36:47.619Z,12.48
2018-02-16T05:39:16.442Z,12.65
2018-02-16T05:41:45.261Z,9.77
2018-02-16T05:44:14.087Z,8.55
2018-02-16T05:46:42.944Z,13.57
2018-02-16T05:49:11.748Z,15.95
2018-02-16T05:51:40.558Z,16.40
2018-02-16T05:54:09.390Z,15.32
2018-02-16T05:56:38.196Z,15.75
2018-02-16T05:59:07.043Z,19.05
2018-02-16T06:01:35.842Z,9.05
2018-02-16T06:04:04.678Z,7.90
2018-02-16T06:06:33.505Z,18.15
2018-02-16T06:09:02.373Z,16.05
2018-02-16T06:11:31.198Z,18.50
2018-02-16T06:14:00.028Z,15.93
2018-02-16T06:16:29.455Z,16.77
2018-02-16T06:18:58.282Z,13.05
2018-02-16T06:21:27.116Z,15.82
2018-02-16T06:23:56.012Z,18.08
2018-02-16T06:26:24.840Z,14.70
2018-02-16T06:28:53.654Z,8.98
2018-02-16T06:31:22.517Z,16.62
2018-02-16T06:33:51.329Z,8.48
2018-02-16T06:36:20.171Z,9.20
2018-02-16T06:38:48.985Z,10.13
2018-02-16T06:41:17.813Z,13.15
2018-02-16T06:43:46.684Z,10.88
2018-02-16T06:46:15.506Z,15.02
2018-02-16T06:48:44.441Z,9.90
2018-02-16T06:51:13.311Z,12.35
2018-02-16T06:53:42.129Z,18.75
2018-02-16T06:56:11.039Z,13.27
2018-02-16T06:58:39.888Z,12.73
2018-02-16T07:01:08.742Z,48.10
2018-02-16T07:03:37.548Z,14.60
2018-02-16T07:06:06.375Z,10.70
2018-02-16T07:08:35.240Z,11.70
2018-02-16T07:11:04.046Z,7.37
2018-02-16T07:13:32.877Z,9.13
2018-02-16T07:16:01.703Z,16.60
2018-02-16T07:18:30.624Z,19.35
2018-02-16T07:20:59.888Z,8.63
2018-02-16T07:23:28.711Z,17.10
2018-02-16T07:25:57.575Z,15.02
2018-02-16T07:28:26.397Z,7.97
2018-02-16T07:30:55.239Z,10.25
2018-02-16T07:33:24.052Z,10.50
2018-02-16T07:35:52.940Z,11.40
2018-02-16T07:38:21.748Z,13.02
2018-02-16T07:40:50.564Z,7.10
2018-02-16T07:43:19.399Z,7.45
2018-02-16T07:45:48.253Z,14.63
2018-02-16T07:48:17.073Z,7.12
2018-02-16T07:50:45.940Z,5.62
2018-02-16T07:53:14.792Z,8.73
2018-02-16T07:55:43.601Z,6.40
2018-02-16T07:58:17.457Z,7.15
2018-02-16T08:00:46.277Z,6.22
2018-02-16T08:03:15.112Z,7.68
2018-02-16T08:05:43.913Z,15.57
2018-02-16T08:08:12.760Z,7.95
2018-02-16T08:10:41.562Z,7.95
2018-02-16T08:13:10.405Z,7.25
2018-02-16T08:15:39.248Z,10.95
2018-02-16T08:18:08.051Z,10.38
2018-02-16T08:20:36.921Z,8.52
2018-02-16T08:23:05.732Z,19.83
2018-02-16T08:25:34.862Z,7.62
2018-02-16T08:28:03.721Z,12.73
2018-02-16T08:30:32.544Z,15.55
2018-02-16T08:33:01.369Z,12.18
2018-02-16T08:35:30.229Z,6.22
2018-02-16T08:37:59.089Z,7.85
2018-02-16T08:40:27.864Z,5.20
2018-02-16T08:42:56.776Z,12.73
2018-02-16T08:45:25.621Z,9.02
2018-02-16T08:47:54.453Z,10.23
2018-02-16T08:50:23.280Z,9.55
2018-02-16T08:52:52.145Z,7.80
2018-02-16T08:55:20.974Z,8.02
2018-02-16T08:57:49.822Z,10.57
2018-02-16T09:00:18.661Z,12.20
2018-02-16T09:02:47.492Z,5.22
2018-02-16T09:05:16.356Z,7.22
2018-02-16T09:07:45.194Z,7.15
2018-02-16T09:10:14.075Z,13.70
2018-02-16T09:12:42.972Z,9.45
2018-02-16T09:15:11.826Z,8.02
2018-02-16T09:17:40.642Z,7.45
2018-02-16T09:20:09.476Z,9.88
2018-02-16T09:22:39.204Z,8.27
2018-02-16T09:25:08.049Z,10.40
2018-02-16T09:27:36.877Z,5.95
2018-02-16T09:30:05.845Z,7.40
2018-02-16T09:32:34.687Z,9.95
2018-02-16T09:35:03.540Z,9.20
2018-02-16T09:37:33.009Z,9.20
2018-02-16T09:40:02.131Z,6.82
2018-02-16T09:42:30.959Z,8.18
2018-02-16T09:44:59.788Z,6.55
2018-02-16T09:47:28.633Z,9.38
2018-02-16T09:49:57.457Z,8.63
2018-02-16T09:52:26.329Z,11.10
2018-02-16T09:54:59.929Z,8.80
2018-02-16T09:57:28.792Z,9.20
2018-02-16T09:59:57.662Z,6.90
2018-02-16T10:02:26.608Z,10.27
2018-02-16T10:04:55.464Z,10.05
2018-02-16T10:07:24.306Z,10.73
2018-02-16T10:09:53.191Z,10.98
2018-02-16T10:12:22.024Z,8.57
2018-02-16T10:14:50.870Z,14.55
2018-02-16T10:17:19.740Z,14.77
2018-02-16T10:19:48.566Z,11.02
2018-02-16T10:22:17.526Z,5.72
2018-02-16T10:24:46.349Z,8.02
2018-02-16T10:27:15.203Z,8.70
2018-02-16T10:29:44.035Z,7.82
2018-02-16T10:32:12.877Z,7.68
2018-02-16T10:34:41.702Z,6.37
2018-02-16T10:37:10.561Z,7.10
2018-02-16T10:39:39.421Z,6.22
2018-02-16T10:42:08.269Z,6.78
2018-02-16T10:44:37.146Z,5.97
2018-02-16T10:47:05.973Z,8.00
2018-02-16T10:49:34.825Z,6.80
2018-02-16T10:52:03.647Z,7.72
2018-02-16T10:54:32.534Z,7.82
2018-02-16T10:57:01.355Z,4.95
2018-02-16T10:59:30.176Z,6.43
2018-02-16T11:02:04.913Z,9.63
2018-02-16T11:04:39.545Z,6.87
2018-02-16T11:07:14.274Z,7.43
2018-02-16T11:09:43.116Z,6.67
2018-02-16T11:12:12.000Z,14.57
2018-02-16T11:14:41.041Z,7.53
2018-02-16T11:17:09.872Z,7.97
2018-02-16T11:19:38.745Z,4.20
2018-02-16T11:22:07.748Z,7.50
2018-02-16T11:24:36.543Z,5.67
2018-02-16T11:27:05.364Z,5.77
2018-02-16T11:29:34.218Z,10.00
2018-02-16T11:32:03.062Z,6.60
2018-02-16T11:34:31.908Z,4.60
2018-02-16T11:37:00.769Z,8.38
2018-02-16T11:39:29.656Z,5.23
2018-02-16T11:41:58.461Z,5.13
2018-02-16T11:44:27.342Z,7.60
2018-02-16T11:46:56.153Z,7.67
2018-02-16T11:49:24.966Z,9.27
2018-02-16T11:51:53.795Z,9.17
2018-02-16T11:54:22.619Z,6.87
2018-02-16T11:56:51.499Z,5.40
2018-02-16T11:59:20.324Z,7.57
2018-02-16T12:01:49.185Z,4.07
2018-02-16T12:04:18.050Z,4.03
2018-02-16T12:06:46.886Z,3.57
2018-02-16T12:09:15.723Z,5.10
2018-02-16T12:11:44.537Z,4.07
2018-02-16T12:14:13.815Z,2.97
2018-02-16T12:16:42.698Z,4.83
2018-02-16T12:19:11.564Z,4.27
2018-02-16T12:21:40.389Z,11.47
2018-02-16T12:24:09.205Z,11.13
2018-02-16T12:26:38.056Z,8.20
2018-02-16T12:29:06.864Z,6.07
2018-02-16T12:31:35.774Z,11.73
2018-02-16T12:34:04.607Z,5.13
2018-02-16T12:36:33.533Z,5.20
2018-02-16T12:39:02.335Z,6.67
2018-02-16T12:41:31.176Z,4.43
2018-02-16T12:44:00.008Z,9.27
2018-02-16T12:46:28.941Z,8.30
2018-02-16T12:48:57.773Z,7.70
2018-02-16T12:51:26.674Z,6.15
2018-02-16T12:53:55.520Z,12.27
2018-02-16T12:56:24.392Z,5.53
2018-02-16T12:58:53.204Z,6.60
2018-02-16T13:01:22.099Z,4.68
2018-02-16T13:03:50.901Z,4.93
2018-02-16T13:06:19.929Z,7.62
2018-02-16T13:08:48.744Z,9.00
2018-02-16T13:11:17.606Z,6.00
2018-02-16T13:13:46.430Z,4.97
2018-02-16T13:16:15.347Z,5.30
2018-02-16T13:18:44.182Z,6.97
2018-02-16T13:21:13.053Z,8.05
2018-02-16T13:23:41.872Z,8.93
2018-02-16T13:26:10.727Z,7.28
2018-02-16T13:28:39.581Z,20.05
2018-02-16T13:31:08.423Z,7.03
2018-02-16T13:33:37.268Z,6.57
2018-02-16T13:36:06.095Z,8.20
2018-02-16T13:38:34.989Z,19.25
2018-02-16T13:41:03.870Z,21.45
2018-02-16T13:43:32.762Z,8.50
2018-02-16T13:46:01.704Z,11.23
2018-02-16T13:48:30.621Z,5.13
2018-02-16T13:50:59.498Z,7.17
2018-02-16T13:53:28.349Z,8.57
2018-02-16T13:55:57.161Z,8.07
2018-02-16T13:58:25.985Z,7.87
2018-02-16T14:00:54.867Z,8.33
2018-02-16T14:03:23.727Z,9.87
2018-02-16T14:05:52.638Z,7.40
2018-02-16T14:08:21.491Z,7.03
2018-02-16T14:10:50.376Z,6.90
2018-02-16T14:13:19.190Z,8.10
2018-02-16T14:15:48.052Z,6.53
2018-02-16T14:18:16.929Z,7.13
2018-02-16T14:20:45.780Z,16.77
2018-02-16T14:23:14.619Z,8.77
2018-02-16T14:25:43.480Z,6.63
2018-02-16T14:28:12.304Z,8.03
2018-02-16T14:30:41.160Z,39.00
2018-02-16T14:33:10.006Z,11.43
2018-02-16T14:35:38.816Z,9.37
2018-02-16T14:38:07.691Z,16.13
2018-02-16T14:40:37.927Z,17.83
2018-02-16T14:43:06.793Z,13.07
2018-02-16T14:45:35.609Z,11.63
2018-02-16T14:48:04.483Z,11.57
2018-02-16T14:50:33.336Z,10.40
2018-02-16T14:53:02.510Z,10.70
2018-02-16T14:55:31.358Z,10.57
2018-02-16T14:58:00.205Z,8.57
2018-02-16T15:00:29.048Z,9.35
2018-02-16T15:02:57.946Z,11.73
2018-02-16T15:05:26.789Z,10.68
2018-02-16T15:07:55.654Z,13.85
2018-02-16T15:10:24.516Z,9.10
2018-02-16T15:12:53.401Z,10.45
2018-02-16T15:15:22.288Z,9.88
2018-02-16T15:17:51.162Z,7.93
2018-02-16T15:20:20.011Z,10.05
2018-02-16T15:22:48.872Z,8.43
2018-02-16T15:25:17.725Z,11.70
2018-02-16T15:27:46.546Z,7.60
2018-02-16T15:30:15.399Z,9.93
2018-02-16T15:32:44.234Z,9.90
2018-02-16T15:35:13.061Z,10.87
2018-02-16T15:37:41.882Z,9.23
2018-02-16T15:40:10.726Z,12.43
2018-02-16T15:42:39.549Z,10.23
2018-02-16T15:45:08.391Z,10.60
2018-02-16T15:47:37.223Z,10.13
2018-02-16T15:50:06.525Z,13.23
2018-02-16T15:52:35.393Z,15.03
2018-02-16T15:55:04.294Z,10.80
2018-02-16T15:57:33.124Z,10.23
2018-02-16T16:00:02.049Z,8.50
2018-02-16T16:02:30.926Z,10.05
2018-02-16T16:04:59.768Z,13.32
2018-02-16T16:07:28.644Z,25.12
2018-02-16T16:09:57.494Z,12.57
2018-02-16T16:12:26.330Z,9.20
2018-02-16T16:14:55.203Z,20.27
2018-02-16T16:17:24.041Z,27.45
2018-02-16T16:19:52.895Z,34.42
2018-02-16T16:22:21.810Z,19.77
2018-02-16T16:24:50.687Z,15.65
2018-02-16T16:27:19.578Z,13.48
2018-02-16T16:29:48.474Z,13.75
2018-02-16T16:32:17.305Z,18.17
2018-02-16T16:34:46.255Z,10.38
2018-02-16T16:37:15.119Z,15.80
2018-02-16T16:39:44.009Z,15.52
2018-02-16T16:42:12.872Z,16.40
2018-02-16T16:44:41.746Z,14.38
2018-02-16T16:47:10.599Z,15.88
2018-02-16T16:49:39.454Z,15.77
2018-02-16T16:52:08.298Z,12.73
2018-02-16T16:54:37.246Z,13.07
2018-02-16T16:57:06.130Z,14.45
2018-02-16T16:59:34.959Z,12.98
2018-02-16T17:02:03.821Z,13.82
2018-02-16T17:04:32.676Z,18.17
2018-02-16T17:07:01.496Z,80.45
2018-02-16T17:09:30.509Z,77.65
2018-02-16T17:11:59.345Z,71.30
2018-02-16T17:14:28.202Z,98.82
2018-02-16T17:16:57.126Z,48.72
2018-02-16T17:19:25.981Z,17.17
2018-02-16T17:21:54.792Z,16.40
2018-02-16T17:24:23.769Z,17.87
2018-02-16T17:26:52.632Z,279.40
2018-02-16T17:29:21.506Z,159.15
2018-02-16T17:31:50.346Z,79.75
2018-02-16T17:34:19.219Z,55.40
2018-02-16T17:36:48.065Z,38.78
2018-02-16T17:39:16.950Z,55.70
2018-02-16T17:41:45.777Z,56.30
2018-02-16T17:44:14.625Z,44.60
2018-02-16T17:46:43.495Z,38.03
2018-02-16T17:49:12.351Z,22.85
2018-02-16T17:51:41.232Z,18.48
2018-02-16T17:54:10.136Z,17.48
2018-02-16T17:56:39.006Z,16.87
2018-02-16T17:59:07.884Z,18.45
2018-02-16T18:01:36.717Z,15.38
2018-02-16T18:04:05.572Z,13.50
2018-02-16T18:06:34.561Z,18.12
2018-02-16T18:09:03.419Z,23.55
2018-02-16T18:11:32.304Z,30.55
2018-02-16T18:14:01.157Z,15.02
2018-02-16T18:16:30.048Z,17.40
2018-02-16T18:18:58.882Z,19.27
2018-02-16T18:21:27.712Z,19.52
2018-02-16T18:23:56.572Z,17.83
2018-02-16T18:26:25.590Z,14.85
2018-02-16T18:28:54.522Z,17.37
2018-02-16T18:31:23.442Z,23.77
2018-02-16T18:33:52.359Z,51.80
2018-02-16T18:36:21.221Z,68.12
2018-02-16T18:38:50.064Z,26.17
2018-02-16T18:41:19.018Z,48.75
2018-02-16T18:43:48.181Z,22.87
2018-02-16T18:46:17.032Z,20.02
2018-02-16T18:48:45.870Z,47.40
2018-02-16T18:51:14.827Z,27.05
2018-02-16T18:53:43.682Z,260.73
2018-02-16T18:56:12.573Z,180.75
2018-02-16T18:58:41.445Z,59.47
2018-02-16T19:01:10.343Z,27.15
2018-02-16T19:03:39.211Z,63.47
2018-02-16T19:06:08.050Z,41.53
2018-02-16T19:08:36.910Z,52.97
2018-02-16T19:11:05.752Z,44.22
2018-02-16T19:13:34.724Z,27.17
2018-02-16T19:16:03.605Z,26.85
2018-02-16T19:18:32.443Z,27.25
2018-02-16T19:21:01.296Z,27.20
2018-02-16T19:23:30.136Z,29.92
2018-02-16T19:25:58.982Z,28.92
2018-02-16T19:28:27.988Z,115.70
2018-02-16T19:30:56.833Z,45.92
2018-02-16T19:33:25.695Z,92.57
2018-02-16T19:35:54.530Z,51.47
2018-02-16T19:38:23.397Z,95.15
2018-02-16T19:40:52.277Z,106.12
2018-02-16T19:43:21.134Z,68.03
2018-02-16T19:45:50.004Z,49.60
2018-02-16T19:48:19.965Z,48.58
2018-02-16T19:50:48.805Z,38.25
2018-02-16T19:53:17.646Z,41.53
2018-02-16T19:55:46.456Z,50.38
2018-02-16T19:58:15.319Z,48.58
2018-02-16T20:00:44.249Z,55.38
2018-02-16T20:03:13.080Z,44.60
2018-02-16T20:05:41.944Z,34.25
2018-02-16T20:08:10.802Z,34.15
2018-02-16T20:10:39.648Z,39.90
2018-02-16T20:13:08.475Z,35.72
2018-02-16T20:15:37.391Z,79.15
2018-02-16T20:18:06.257Z,316.40
2018-02-16T20:20:35.124Z,161.12
2018-02-16T20:23:03.958Z,63.40
2018-02-16T20:25:32.807Z,54.42
2018-02-16T20:28:01.675Z,44.75
2018-02-16T20:30:30.558Z,41.45
2018-02-16T20:32:59.398Z,101.68
2018-02-16T20:35:28.346Z,45.72
2018-02-16T20:37:57.220Z,80.82
2018-02-16T20:40:26.053Z,47.20
2018-02-16T20:42:54.898Z,35.95
2018-02-16T20:45:23.758Z,47.72
2018-02-16T20:47:52.635Z,57.08
2018-02-16T20:50:21.538Z,73.07
2018-02-16T20:52:50.350Z,46.80
2018-02-16T20:55:19.264Z,48.35
2018-02-16T20:57:48.093Z,35.40
2018-02-16T21:00:16.956Z,39.13
2018-02-16T21:02:46.022Z,36.85
2018-02-16T21:05:14.880Z,67.97
2018-02-16T21:07:43.716Z,35.40
2018-02-16T21:10:12.568Z,26.52
2018-02-16T21:12:41.439Z,53.95
2018-02-16T21:15:10.273Z,66.65
2018-02-16T21:17:39.370Z,33.72
2018-02-16T21:20:08.194Z,34.10
2018-02-16T21:22:37.056Z,20.15
2018-02-16T21:25:05.900Z,30.15
2018-02-16T21:27:34.815Z,27.65
2018-02-16T21:30:03.671Z,69.07
2018-02-16T21:32:32.542Z,53.17
2018-02-16T21:35:01.380Z,32.67
2018-02-16T21:37:30.242Z,50.35
2018-02-16T21:39:59.106Z,22.70
2018-02-16T21:42:29.193Z,22.05
2018-02-16T21:44:58.057Z,47.58
2018-02-16T21:47:26.901Z,30.48
2018-02-16T21:49:55.857Z,106.37
2018-02-16T21:52:24.699Z,49.53
2018-02-16T21:54:53.585Z,65.25
2018-02-16T21:57:22.417Z,74.62
2018-02-16T21:59:51.257Z,65.12
2018-02-16T22:02:20.142Z,54.88
2018-02-16T22:04:48.979Z,78.85
2018-02-16T22:07:17.851Z,58.20
2018-02-16T22:09:46.684Z,51.55
2018-02-16T22:12:15.570Z,50.30
2018-02-16T22:14:44.483Z,59.92
2018-02-16T22:17:13.340Z,72.28
2018-02-16T22:19:42.158Z,58.83
2018-02-16T22:22:11.038Z,40.25
2018-02-16T22:24:39.960Z,45.20
2018-02-16T22:27:08.790Z,72.62
2018-02-16T22:29:37.647Z,41.67
2018-02-16T22:32:06.487Z,49.75
2018-02-16T22:34:35.324Z,40.33
2018-02-16T22:37:04.218Z,64.45
2018-02-16T22:39:33.066Z,35.72
2018-02-16T22:42:01.904Z,37.70
2018-02-16T22:44:30.776Z,50.20
2018-02-16T22:46:59.610Z,39.60
2018-02-16T22:49:28.434Z,63.60
2018-02-16T22:51:57.343Z,50.42
2018-02-16T22:54:26.189Z,51.22
2018-02-16T22:56:55.058Z,51.65
2018-02-16T22:59:23.879Z,35.00
2018-02-16T23:01:52.718Z,68.95
2018-02-16T23:04:21.547Z,62.60
2018-02-16T23:06:50.393Z,39.90
2018-02-16T23:09:19.236Z,67.72
2018-02-16T23:11:48.095Z,48.45
2018-02-16T23:14:16.935Z,43.78
2018-02-16T23:16:45.768Z,43.38
2018-02-16T23:19:14.677Z,55.53
2018-02-16T23:21:43.525Z,47.55
2018-02-16T23:24:12.377Z,47.15
2018-02-16T23:26:41.221Z,46.10
2018-02-16T23:29:10.121Z,60.75
2018-02-16T23:31:38.949Z,32.92
2018-02-16T23:34:07.774Z,49.75
2018-02-16T23:36:36.621Z,38.50
2018-02-16T23:39:05.433Z,87.93
2018-02-16T23:41:34.284Z,62.75
2018-02-16T23:44:03.118Z,47.28
2018-02-16T23:46:32.003Z,47.92
2018-02-16T23:49:00.841Z,65.28
2018-02-16T23:51:29.686Z,56.90
2018-02-16T23:53:58.509Z,72.50
2018-02-16T23:56:27.345Z,50.00
2018-02-16T23:58:56.290Z,85.57
